createdAt,value
2022-11-01T00:04:56.314Z,9.76
2022-11-01T00:09:59.042Z,9.89
2022-11-01T00:15:01.745Z,9.99
2022-11-01T00:20:04.515Z,9.94
2022-11-01T00:25:07.183Z,9.78
2022-11-01T00:30:11.079Z,9.72
2022-11-01T00:35:13.783Z,9.64
2022-11-01T00:40:23.314Z,9.56
2022-11-01T00:45:26.522Z,9.46
2022-11-01T00:50:29.223Z,9.38
2022-11-01T00:55:31.923Z,9.34
2022-11-01T01:00:34.644Z,9.28
2022-11-01T01:05:37.301Z,9.26
2022-11-01T01:10:40.481Z,9.24
2022-11-01T01:15:43.199Z,9.21
2022-11-01T01:20:45.919Z,9.23
2022-11-01T01:25:48.613Z,9.27
2022-11-01T01:30:51.308Z,9.23
2022-11-01T01:35:53.991Z,9.28
2022-11-01T01:41:21.238Z,9.27
2022-11-01T01:46:23.940Z,9.31
2022-11-01T01:51:26.727Z,9.35
2022-11-01T01:56:29.445Z,9.28
2022-11-01T02:01:33.602Z,9.28
2022-11-01T02:06:36.552Z,9.28
2022-11-01T02:11:39.237Z,9.32
2022-11-01T02:16:41.876Z,9.36
2022-11-01T02:21:44.588Z,9.27
2022-11-01T02:26:47.162Z,9.21
2022-11-01T02:31:49.824Z,9.32
2022-11-01T02:36:52.574Z,9.35
2022-11-01T02:41:55.277Z,9.42
2022-11-01T02:47:03.761Z,9.44
2022-11-01T02:52:06.499Z,9.47
2022-11-01T02:57:09.131Z,9.47
2022-11-01T03:02:11.800Z,9.43
2022-11-01T03:07:14.423Z,9.41
2022-11-01T03:12:17.205Z,9.49
2022-11-01T03:17:19.779Z,9.53
2022-11-01T03:22:22.381Z,9.54
2022-11-01T03:27:25.044Z,9.48
2022-11-01T03:32:27.740Z,9.44
2022-11-01T03:37:30.452Z,9.41
2022-11-01T03:42:33.118Z,9.35
2022-11-01T03:47:35.842Z,9.27
2022-11-01T03:52:38.597Z,9.18
2022-11-01T03:57:42.835Z,9.09
2022-11-01T04:02:45.529Z,9.00
2022-11-01T04:07:48.268Z,8.96
2022-11-01T04:12:50.995Z,8.94
2022-11-01T04:18:11.207Z,9.00
2022-11-01T04:23:13.814Z,8.89
2022-11-01T04:28:16.492Z,8.78
2022-11-01T04:33:19.338Z,8.73
2022-11-01T04:38:21.974Z,8.76
2022-11-01T04:43:25.067Z,8.77
2022-11-01T04:48:28.539Z,8.73
2022-11-01T04:53:31.600Z,9.08
2022-11-01T04:58:39.973Z,8.94
2022-11-01T05:03:46.299Z,8.81
2022-11-01T05:08:49.853Z,8.70
2022-11-01T05:13:52.949Z,8.61
2022-11-01T05:18:56.026Z,8.65
2022-11-01T05:23:59.139Z,8.79
2022-11-01T05:29:08.848Z,8.73
2022-11-01T05:34:16.921Z,8.86
2022-11-01T05:39:20.117Z,8.96
2022-11-01T05:44:23.320Z,8.94
2022-11-01T05:49:26.499Z,9.00
2022-11-01T05:54:29.638Z,9.13
2022-11-01T05:59:32.860Z,9.18
2022-11-01T06:04:35.970Z,9.19
2022-11-01T06:09:39.391Z,9.29
2022-11-01T06:14:42.589Z,9.34
2022-11-01T06:19:45.771Z,9.39
2022-11-01T06:24:48.951Z,9.48
2022-11-01T06:29:52.127Z,9.59
2022-11-01T06:35:07.318Z,9.66
2022-11-01T06:40:13.162Z,9.76
2022-11-01T06:45:16.653Z,9.91
2022-11-01T06:50:19.855Z,10.16
2022-11-01T06:55:23.347Z,10.43
2022-11-01T07:00:26.502Z,10.86
2022-11-01T07:05:32.852Z,11.14
2022-11-01T07:10:39.233Z,11.30
2022-11-01T07:15:42.312Z,11.60
2022-11-01T07:25:49.583Z,11.76
2022-11-01T07:30:52.713Z,11.88
2022-11-01T07:35:55.782Z,12.01
2022-11-01T07:40:58.848Z,12.20
2022-11-01T07:46:04.216Z,12.41
2022-11-01T07:51:07.679Z,12.68
2022-11-01T07:56:10.838Z,13.08
2022-11-01T08:01:14.713Z,13.73
2022-11-01T08:06:18.230Z,14.42
2022-11-01T08:11:21.477Z,15.06
2022-11-01T08:16:24.846Z,15.52
2022-11-01T08:21:28.010Z,15.71
2022-11-01T08:26:31.544Z,15.68
2022-11-01T08:31:34.738Z,15.58
2022-11-01T08:36:37.951Z,15.56
2022-11-01T08:41:41.152Z,15.43
2022-11-01T08:46:44.282Z,15.44
2022-11-01T08:51:47.474Z,15.23
2022-11-01T08:56:50.624Z,15.16
2022-11-01T09:01:53.923Z,15.21
2022-11-01T09:06:57.096Z,15.55
2022-11-01T09:12:00.217Z,15.85
2022-11-01T09:17:03.303Z,16.10
2022-11-01T09:22:06.415Z,16.21
2022-11-01T09:27:09.929Z,16.17
2022-11-01T09:32:13.564Z,16.09
2022-11-01T09:37:16.753Z,16.33
2022-11-01T09:42:20.674Z,16.40
2022-11-01T09:47:23.880Z,16.39
2022-11-01T09:52:27.048Z,16.51
2022-11-01T09:57:30.282Z,16.77
2022-11-01T10:02:33.493Z,16.97
2022-11-01T10:07:37.377Z,17.22
2022-11-01T10:12:40.558Z,17.25
2022-11-01T10:17:47.090Z,17.38
2022-11-01T10:22:54.171Z,17.46
2022-11-01T10:27:57.386Z,17.50
2022-11-01T10:33:08.394Z,17.76
2022-11-01T10:38:24.968Z,17.93
2022-11-01T10:43:31.352Z,17.91
2022-11-01T10:48:40.306Z,17.89
2022-11-01T10:53:43.388Z,18.13
2022-11-01T10:58:46.747Z,18.42
2022-11-01T11:03:50.210Z,18.55
2022-11-01T11:08:53.298Z,18.71
2022-11-01T11:13:56.454Z,18.32
2022-11-01T11:18:59.624Z,18.32
2022-11-01T11:24:02.790Z,18.03
2022-11-01T11:29:05.977Z,17.90
2022-11-01T11:34:09.200Z,18.03
2022-11-01T11:39:12.436Z,18.15
2022-11-01T11:44:17.216Z,18.30
2022-11-01T11:49:20.441Z,18.40
2022-11-01T11:54:23.660Z,18.70
2022-11-01T11:59:28.511Z,18.99
2022-11-01T12:04:32.047Z,18.74
2022-11-01T12:09:35.644Z,18.56
2022-11-01T12:14:39.027Z,18.54
2022-11-01T12:19:42.339Z,18.32
2022-11-01T12:24:49.983Z,18.59
2022-11-01T12:29:53.301Z,18.64
2022-11-01T12:34:56.511Z,18.53
2022-11-01T12:39:59.700Z,18.10
2022-11-01T12:45:02.798Z,18.01
2022-11-01T12:50:05.918Z,17.69
2022-11-01T12:55:09.080Z,17.44
2022-11-01T13:00:32.447Z,17.45
2022-11-01T13:05:35.629Z,17.78
2022-11-01T13:10:39.172Z,17.87
2022-11-01T13:15:42.355Z,17.81
2022-11-01T13:20:45.695Z,17.67
2022-11-01T13:25:48.957Z,17.69
2022-11-01T13:30:52.588Z,17.36
2022-11-01T13:35:55.835Z,17.35
2022-11-01T13:40:59.038Z,17.21
2022-11-01T13:46:02.251Z,17.33
2022-11-01T13:51:05.484Z,17.33
2022-11-01T13:56:08.824Z,17.37
2022-11-01T14:01:12.169Z,17.21
2022-11-01T14:06:15.563Z,17.14
2022-11-01T14:11:21.942Z,16.89
2022-11-01T14:16:25.162Z,16.92
2022-11-01T14:21:28.645Z,16.92
2022-11-01T14:26:31.744Z,16.89
2022-11-01T14:31:35.163Z,16.95
2022-11-01T14:36:50.188Z,16.85
2022-11-01T14:41:56.238Z,16.59
2022-11-01T14:47:00.474Z,16.56
2022-11-01T14:52:03.626Z,16.29
2022-11-01T14:57:06.749Z,16.16
2022-11-01T15:02:10.014Z,16.21
2022-11-01T15:07:13.109Z,16.11
2022-11-01T15:12:16.213Z,16.07
2022-11-01T15:17:19.259Z,15.95
2022-11-01T15:22:22.494Z,15.94
2022-11-01T15:27:25.096Z,15.83
2022-11-01T15:32:28.183Z,15.63
2022-11-01T15:37:33.210Z,15.54
2022-11-01T15:42:35.973Z,15.39
2022-11-01T15:47:38.668Z,15.31
2022-11-01T15:52:41.434Z,15.27
2022-11-01T15:57:44.337Z,15.27
2022-11-01T16:02:47.038Z,15.25
2022-11-01T16:07:49.890Z,15.16
2022-11-01T16:12:52.613Z,15.08
2022-11-01T16:17:57.518Z,15.02
2022-11-01T16:23:03.349Z,14.94
2022-11-01T16:28:07.313Z,14.90
2022-11-01T16:33:10.189Z,14.77
2022-11-01T16:38:12.905Z,14.83
2022-11-01T16:43:15.619Z,14.81
2022-11-01T16:48:18.298Z,14.76
2022-11-01T16:53:21.001Z,14.69
2022-11-01T16:58:23.801Z,14.79
2022-11-01T17:03:26.591Z,14.76
2022-11-01T17:08:33.189Z,14.67
2022-11-01T17:13:35.935Z,14.66
2022-11-01T17:18:38.887Z,14.58
2022-11-01T17:23:41.570Z,14.69
2022-11-01T17:28:49.292Z,14.64
2022-11-01T17:33:54.909Z,14.71
2022-11-01T17:38:57.512Z,14.55
2022-11-01T17:44:00.110Z,14.58
2022-11-01T17:49:02.825Z,14.51
2022-11-01T17:54:05.526Z,14.46
2022-11-01T17:59:08.681Z,14.37
2022-11-01T18:04:11.605Z,14.39
2022-11-01T18:09:14.213Z,14.37
2022-11-01T18:14:17.125Z,14.33
2022-11-01T18:19:19.712Z,14.12
2022-11-01T18:24:22.796Z,13.80
2022-11-01T18:29:26.122Z,13.49
2022-11-01T18:34:29.218Z,13.34
2022-11-01T18:39:31.959Z,13.13
2022-11-01T18:44:34.568Z,13.03
2022-11-01T18:49:37.633Z,12.96
2022-11-01T18:54:40.356Z,12.98
2022-11-01T18:59:43.193Z,12.93
2022-11-01T19:04:46.337Z,12.91
2022-11-01T19:09:48.999Z,12.96
2022-11-01T19:14:51.827Z,12.94
2022-11-01T19:19:54.491Z,12.94
2022-11-01T19:24:57.141Z,12.81
2022-11-01T19:30:01.889Z,12.63
2022-11-01T19:35:04.529Z,12.40
2022-11-01T19:40:07.255Z,12.28
2022-11-01T19:45:10.071Z,12.27
2022-11-01T19:50:13.001Z,12.20
2022-11-01T19:55:15.975Z,12.15
2022-11-01T20:00:19.248Z,12.00
2022-11-01T20:05:23.117Z,11.89
2022-11-01T20:10:26.470Z,11.76
2022-11-01T20:15:29.906Z,11.63
2022-11-01T20:20:34.847Z,11.55
2022-11-01T20:25:38.709Z,11.54
2022-11-01T20:30:42.170Z,11.40
2022-11-01T20:35:45.021Z,11.26
2022-11-01T20:40:48.096Z,11.38
2022-11-01T20:45:51.035Z,11.25
2022-11-01T20:50:54.311Z,11.24
2022-11-01T20:55:57.138Z,11.18
2022-11-01T21:01:00.125Z,11.12
2022-11-01T21:06:03.116Z,11.13
2022-11-01T21:11:05.932Z,11.09
2022-11-01T21:16:08.777Z,10.99
2022-11-01T21:21:11.571Z,10.90
2022-11-01T21:26:15.192Z,10.83
2022-11-01T21:31:18.041Z,10.79
2022-11-01T21:36:21.062Z,10.72
2022-11-01T21:41:23.893Z,10.63
2022-11-01T21:46:26.558Z,10.54
2022-11-01T21:51:29.578Z,10.56
2022-11-01T21:56:32.336Z,10.53
2022-11-01T22:01:35.171Z,10.50
2022-11-01T22:06:38.040Z,10.48
2022-11-01T22:11:40.712Z,10.37
2022-11-01T22:16:43.475Z,10.36
2022-11-01T22:26:53.894Z,10.29
2022-11-01T22:31:56.916Z,10.21
2022-11-01T22:36:59.607Z,10.16
2022-11-01T22:42:04.794Z,10.12
2022-11-01T22:47:07.513Z,10.11
2022-11-01T22:52:11.032Z,10.06
2022-11-01T22:57:13.662Z,10.05
2022-11-01T23:02:16.486Z,10.08
2022-11-01T23:07:19.253Z,10.00
2022-11-01T23:12:55.041Z,9.94
2022-11-01T23:17:58.173Z,9.93
2022-11-01T23:23:01.638Z,9.82
2022-11-01T23:28:04.529Z,9.87
2022-11-01T23:33:08.065Z,9.89
2022-11-01T23:38:10.816Z,9.92
2022-11-01T23:43:13.573Z,9.87
2022-11-01T23:48:16.197Z,9.82
2022-11-01T23:53:18.895Z,9.87
2022-11-01T23:58:21.659Z,9.84
